Terminal Aerodrome Forecast
Issued by NWS

Home | Current Version | Previous Version | Text Only | Print | Product List | Glossary On
Versions: 1 2 3 4 5 6 7 8 9 10 11 12
000
FTUS46 KHNX 271130
TAFMCE
TAF
KMCE 271130Z 2712/2812 34007KT P6SM -SHRA BKN040 OVC080
     FM272300 32006KT P6SM BKN050 OVC090=

USA.gov is the U.S. government's official web portal to all federal, state and local government web resources and services.